Time;durP1;ratioP1;P1;durP2;ratioP2;P2;SDS_P1;SDS_P2;PMS_P1;PMS_P2;Temp;Humidity;BMP_temperature;BMP_pressure;BME280_temperature;BME280_humidity;BME280_pressure;Samples;Min_cycle;Max_cycle;Signal;HPM_P1;HPM_P2
2021/11/15 00:01:13;;;;;;;14.93;13.53;;;9.30;99.90;;;;;;5034744;28;20494;-74
2021/11/15 00:03:40;;;;;;;19.37;17.33;;;9.30;99.90;;;;;;5032720;28;20193;-74
2021/11/15 00:06:06;;;;;;;17.93;16.03;;;9.30;99.90;;;;;;5030581;28;20407;-74
2021/11/15 00:08:32;;;;;;;18.87;16.53;;;9.30;99.90;;;;;;5034361;28;20424;-73
2021/11/15 00:10:58;;;;;;;18.50;16.60;;;9.30;99.90;;;;;;5045920;28;20176;-74
2021/11/15 00:13:23;;;;;;;17.27;15.53;;;9.30;99.90;;;;;;5054397;28;20402;-74
2021/11/15 00:15:49;;;;;;;20.30;17.73;;;9.30;99.90;;;;;;5052953;28;20658;-74
2021/11/15 00:18:14;;;;;;;18.30;16.47;;;9.30;99.90;;;;;;5034189;28;20185;-74
2021/11/15 00:20:40;;;;;;;18.50;16.33;;;9.30;99.90;;;;;;5038694;28;20404;-74
2021/11/15 00:23:06;;;;;;;20.83;18.13;;;9.30;99.90;;;;;;5029225;28;20184;-74
2021/11/15 00:25:32;;;;;;;20.83;17.97;;;9.20;99.90;;;;;;5033598;28;20703;-74
2021/11/15 00:27:57;;;;;;;19.83;17.70;;;9.20;99.90;;;;;;5032731;28;20423;-74
2021/11/15 00:30:23;;;;;;;19.37;17.07;;;9.20;99.90;;;;;;5035066;28;20212;-74
2021/11/15 00:32:49;;;;;;;18.87;16.83;;;9.20;99.90;;;;;;5033968;28;20646;-74
2021/11/15 00:35:15;;;;;;;17.07;15.37;;;9.20;99.90;;;;;;5033771;28;20215;-74
2021/11/15 00:37:41;;;;;;;19.93;17.63;;;9.20;99.90;;;;;;5032469;28;20181;-74
2021/11/15 00:40:11;;;;;;;18.13;15.97;;;9.20;99.90;;;;;;5019447;28;20423;-75
2021/11/15 00:42:37;;;;;;;18.23;16.40;;;9.20;99.90;;;;;;5034860;28;20532;-74
2021/11/15 00:45:04;;;;;;;17.50;15.63;;;9.20;99.90;;;;;;5033687;28;20765;-74
2021/11/15 00:47:29;;;;;;;19.17;17.17;;;9.20;99.90;;;;;;5033649;28;20426;-74
2021/11/15 00:49:55;;;;;;;20.97;16.37;;;9.20;99.90;;;;;;5047337;28;20427;-74
2021/11/15 00:52:20;;;;;;;19.07;16.50;;;9.20;99.90;;;;;;5036956;28;20323;-74
2021/11/15 00:54:46;;;;;;;18.73;16.20;;;9.20;99.90;;;;;;5032291;28;20209;-74
2021/11/15 00:57:11;;;;;;;18.27;16.20;;;9.20;99.90;;;;;;5033346;28;20196;-74
2021/11/15 00:59:37;;;;;;;17.30;15.50;;;9.20;99.90;;;;;;5039059;28;20175;-74
2021/11/15 01:02:03;;;;;;;17.83;15.93;;;9.20;99.90;;;;;;5050973;28;20176;-74
2021/11/15 01:04:29;;;;;;;19.00;16.20;;;9.20;99.90;;;;;;5051455;28;20156;-74
2021/11/15 01:06:57;;;;;;;22.87;16.87;;;9.20;99.90;;;;;;5053104;28;20395;-74
2021/11/15 01:09:24;;;;;;;21.47;17.07;;;9.20;99.90;;;;;;5046787;28;20942;-74
2021/11/15 01:11:51;;;;;;;20.10;15.80;;;9.20;99.90;;;;;;5029796;28;20442;-75
2021/11/15 01:14:17;;;;;;;19.00;17.00;;;9.20;99.90;;;;;;5013364;28;20489;-74
2021/11/15 01:16:44;;;;;;;17.77;15.03;;;9.20;99.90;;;;;;5031596;28;20481;-74
2021/11/15 01:19:11;;;;;;;17.40;14.87;;;9.20;99.90;;;;;;5032977;28;20411;-74
2021/11/15 01:21:37;;;;;;;17.37;15.50;;;9.20;99.90;;;;;;5032891;28;20438;-74
2021/11/15 01:24:03;;;;;;;17.60;15.70;;;9.10;99.90;;;;;;5033073;28;20391;-74
2021/11/15 01:26:29;;;;;;;18.60;15.23;;;9.10;99.90;;;;;;5032625;28;20172;-74
2021/11/15 01:28:54;;;;;;;19.07;15.90;;;9.10;99.90;;;;;;5029588;28;20450;-74
2021/11/15 01:31:21;;;;;;;17.97;14.27;;;9.10;99.90;;;;;;5031904;28;20204;-75
2021/11/15 01:33:46;;;;;;;18.63;14.63;;;9.00;99.90;;;;;;5032944;28;20157;-74
2021/11/15 01:36:12;;;;;;;18.40;14.10;;;9.00;99.90;;;;;;5045953;28;20930;-74
2021/11/15 01:38:39;;;;;;;16.83;14.20;;;8.90;99.90;;;;;;5052679;28;20669;-74
2021/11/15 01:41:06;;;;;;;20.03;15.70;;;8.90;99.90;;;;;;5052325;28;20417;-74
2021/11/15 01:43:32;;;;;;;17.53;15.40;;;8.90;99.90;;;;;;5048380;28;20966;-74
2021/11/15 01:45:59;;;;;;;18.40;16.00;;;8.90;99.90;;;;;;5037556;28;20456;-74
2021/11/15 01:48:25;;;;;;;23.00;16.40;;;8.90;99.90;;;;;;5051655;28;20179;-74
2021/11/15 01:50:51;;;;;;;17.17;14.03;;;8.80;99.90;;;;;;5049563;28;20433;-74
2021/11/15 01:53:17;;;;;;;18.40;15.30;;;8.80;99.90;;;;;;5032286;28;20388;-74
2021/11/15 01:55:44;;;;;;;18.40;15.30;;;8.80;99.90;;;;;;5041460;28;20407;-74
2021/11/15 01:58:12;;;;;;;18.77;15.20;;;8.80;99.90;;;;;;5052074;28;20196;-74
2021/11/15 02:03:17;;;;;;;17.77;15.10;;;8.80;99.90;;;;;;5061579;28;20544;-75
2021/11/15 02:05:44;;;;;;;17.57;15.17;;;8.80;99.90;;;;;;5057151;28;20434;-74
2021/11/15 02:08:10;;;;;;;18.57;14.30;;;8.80;99.90;;;;;;5049469;28;20473;-74
2021/11/15 02:10:36;;;;;;;18.20;15.40;;;8.90;99.90;;;;;;5049292;28;20430;-73
2021/11/15 02:13:02;;;;;;;19.00;16.00;;;8.90;99.90;;;;;;5049408;28;20915;-74
2021/11/15 02:15:28;;;;;;;18.47;15.20;;;8.90;99.90;;;;;;5049278;28;20461;-76
2021/11/15 02:17:53;;;;;;;19.40;16.13;;;8.90;99.90;;;;;;5049462;28;20439;-73
2021/11/15 02:22:56;;;;;;;17.80;14.70;;;8.90;99.90;;;;;;5109672;27;20561;-74
2021/11/15 02:25:25;;;;;;;16.80;14.90;;;8.90;99.90;;;;;;5089678;28;20426;-75
2021/11/15 02:27:52;;;;;;;17.50;15.50;;;8.90;99.90;;;;;;5089252;28;20273;-75
2021/11/15 02:30:21;;;;;;;18.50;15.67;;;8.80;99.90;;;;;;5088402;28;20478;-75
2021/11/15 02:32:47;;;;;;;18.33;15.50;;;8.80;99.90;;;;;;5089430;28;20381;-75
2021/11/15 02:35:14;;;;;;;18.57;16.10;;;8.80;99.90;;;;;;5089337;28;20901;-74
2021/11/15 02:37:40;;;;;;;16.40;14.23;;;8.80;99.90;;;;;;5088945;28;20185;-74
2021/11/15 02:40:08;;;;;;;21.40;16.40;;;8.80;99.90;;;;;;5089227;28;20435;-74
2021/11/15 02:42:35;;;;;;;18.93;16.40;;;8.80;99.90;;;;;;5088824;28;20464;-75
2021/11/15 02:45:02;;;;;;;18.20;15.40;;;8.80;99.90;;;;;;5089354;28;20888;-75
2021/11/15 02:47:28;;;;;;;19.13;16.27;;;8.70;99.90;;;;;;5089288;28;20419;-75
2021/11/15 02:49:54;;;;;;;19.80;16.37;;;8.70;99.90;;;;;;5088816;28;20405;-75
2021/11/15 02:52:19;;;;;;;16.90;14.83;;;8.70;99.90;;;;;;5089264;28;20255;-75
2021/11/15 02:54:46;;;;;;;19.13;16.27;;;8.70;99.90;;;;;;5088568;28;20208;-75
2021/11/15 02:57:20;;;;;;;23.50;18.67;;;8.70;99.90;;;;;;5089022;28;20174;-75
2021/11/15 02:59:47;;;;;;;19.77;16.90;;;8.70;99.90;;;;;;5073591;28;20412;-75
2021/11/15 03:02:13;;;;;;;20.20;17.40;;;8.70;99.90;;;;;;5088778;28;20514;-75
2021/11/15 03:04:40;;;;;;;23.17;18.23;;;8.70;99.90;;;;;;5088377;28;20498;-73
2021/11/15 03:07:06;;;;;;;21.53;17.77;;;8.70;99.90;;;;;;5089072;28;20423;-75
2021/11/15 03:09:32;;;;;;;21.57;17.50;;;8.70;99.90;;;;;;5088819;28;20491;-74
2021/11/15 03:11:57;;;;;;;18.57;15.97;;;8.70;99.90;;;;;;5088994;28;20182;-75
2021/11/15 03:14:23;;;;;;;20.47;18.10;;;8.70;99.90;;;;;;5088375;28;20626;-74
2021/11/15 03:16:49;;;;;;;20.37;17.10;;;8.70;99.90;;;;;;5089265;28;20183;-75
2021/11/15 03:19:14;;;;;;;21.97;16.93;;;8.70;99.90;;;;;;5087738;28;20185;-75
2021/11/15 03:21:40;;;;;;;18.70;16.07;;;8.70;99.90;;;;;;5074385;28;20466;-74
2021/11/15 03:24:06;;;;;;;22.97;18.07;;;8.70;99.90;;;;;;5068173;28;20177;-75
2021/11/15 03:26:32;;;;;;;22.63;18.00;;;8.70;99.90;;;;;;5068224;28;20481;-75
2021/11/15 03:28:58;;;;;;;19.27;17.13;;;8.70;99.90;;;;;;5074188;28;20187;-74
2021/11/15 03:31:28;;;;;;;20.83;17.13;;;8.70;99.90;;;;;;5086759;28;20444;-74
2021/11/15 03:33:59;;;;;;;20.07;17.47;;;8.70;99.90;;;;;;5077404;28;20432;-75
2021/11/15 03:36:25;;;;;;;22.10;18.30;;;8.70;99.90;;;;;;5074914;28;20421;-74
2021/11/15 03:38:51;;;;;;;23.23;18.43;;;8.70;99.90;;;;;;5073968;28;20426;-75
2021/11/15 03:41:17;;;;;;;23.53;18.97;;;8.60;99.90;;;;;;5074038;28;20603;-75
2021/11/15 03:43:43;;;;;;;20.27;17.17;;;8.70;99.90;;;;;;5074712;28;20578;-74
2021/11/15 03:46:10;;;;;;;19.83;17.77;;;8.70;99.90;;;;;;5074616;28;20405;-75
2021/11/15 03:48:35;;;;;;;23.30;18.30;;;8.70;99.90;;;;;;5074686;28;20166;-74
2021/11/15 03:51:01;;;;;;;18.93;16.73;;;8.70;99.90;;;;;;5073736;28;20421;-74
2021/11/15 03:53:32;;;;;;;19.90;17.30;;;8.70;99.90;;;;;;5074477;28;20156;-74
2021/11/15 03:55:59;;;;;;;23.17;18.10;;;8.70;99.90;;;;;;5074227;28;20175;-74
2021/11/15 03:58:24;;;;;;;19.73;16.13;;;8.70;99.90;;;;;;5073830;28;20401;-74
2021/11/15 04:00:51;;;;;;;19.87;16.33;;;8.80;99.90;;;;;;5074191;28;20465;-74
2021/11/15 04:03:21;;;;;;;18.67;15.60;;;8.70;99.90;;;;;;5074396;28;20780;-74
2021/11/15 04:05:55;;;;;;;20.70;17.80;;;8.70;99.90;;;;;;5074352;28;20486;-74
2021/11/15 04:08:21;;;;;;;19.90;16.17;;;8.70;99.90;;;;;;5074265;28;20424;-74
2021/11/15 04:10:47;;;;;;;21.67;18.10;;;8.70;99.90;;;;;;5073480;28;20821;-74
2021/11/15 04:13:18;;;;;;;21.80;17.83;;;8.70;99.90;;;;;;5074112;28;20183;-74
2021/11/15 04:15:45;;;;;;;20.37;17.23;;;8.70;99.90;;;;;;5074421;28;20273;-74
2021/11/15 04:18:12;;;;;;;20.03;15.07;;;8.70;99.90;;;;;;5074126;28;20486;-74
2021/11/15 04:20:38;;;;;;;20.77;16.10;;;8.70;99.90;;;;;;5072916;28;20799;-74
2021/11/15 04:23:04;;;;;;;21.10;16.70;;;8.70;99.90;;;;;;5074061;28;20421;-74
2021/11/15 04:25:29;;;;;;;18.80;15.90;;;8.70;99.90;;;;;;5073703;28;20168;-74
2021/11/15 04:27:55;;;;;;;18.03;16.10;;;8.70;99.90;;;;;;5073927;28;20233;-75
2021/11/15 04:30:21;;;;;;;19.43;17.13;;;8.70;99.90;;;;;;5060372;28;20171;-74
2021/11/15 04:32:46;;;;;;;21.93;17.23;;;8.70;99.90;;;;;;5073871;28;20560;-74
2021/11/15 04:35:18;;;;;;;19.43;16.20;;;8.70;99.90;;;;;;5073680;28;20176;-74
2021/11/15 04:37:44;;;;;;;18.43;14.80;;;8.70;99.90;;;;;;5073197;28;20197;-74
2021/11/15 04:40:10;;;;;;;21.13;16.67;;;8.70;99.90;;;;;;5072908;28;20417;-74
2021/11/15 04:42:37;;;;;;;22.70;16.80;;;8.70;99.90;;;;;;5073696;28;20853;-74
2021/11/15 04:45:04;;;;;;;20.13;16.43;;;8.70;99.90;;;;;;5072084;28;20425;-74
2021/11/15 04:47:29;;;;;;;20.93;16.03;;;8.70;99.90;;;;;;5073790;28;20840;-74
2021/11/15 04:49:55;;;;;;;20.80;16.40;;;8.70;99.90;;;;;;5073176;28;20528;-74
2021/11/15 04:52:20;;;;;;;17.03;15.23;;;8.70;99.90;;;;;;5054044;28;20168;-74
2021/11/15 04:54:46;;;;;;;21.50;17.27;;;8.70;99.90;;;;;;5072671;28;20180;-74
2021/11/15 04:57:11;;;;;;;18.67;15.60;;;8.70;99.90;;;;;;5073177;28;20176;-74
2021/11/15 04:59:37;;;;;;;23.23;18.47;;;8.70;99.90;;;;;;5072157;28;20687;-74
2021/11/15 05:02:03;;;;;;;20.03;17.33;;;8.70;99.90;;;;;;5072745;28;20205;-74
2021/11/15 05:04:28;;;;;;;19.60;16.07;;;8.70;99.90;;;;;;5073225;28;20175;-74
2021/11/15 05:06:54;;;;;;;19.93;16.00;;;8.70;99.90;;;;;;5073130;28;20405;-75
2021/11/15 05:09:20;;;;;;;21.50;16.50;;;8.70;99.90;;;;;;5072188;28;20175;-74
2021/11/15 05:11:46;;;;;;;20.17;16.83;;;8.70;99.90;;;;;;5072169;28;20452;-74
2021/11/15 05:14:12;;;;;;;21.13;15.80;;;8.60;99.90;;;;;;5073303;28;20492;-74
2021/11/15 05:16:38;;;;;;;23.23;17.30;;;8.60;99.90;;;;;;5073102;28;20162;-74
2021/11/15 05:19:03;;;;;;;24.40;18.23;;;8.60;99.90;;;;;;5073004;28;20175;-74
2021/11/15 05:21:29;;;;;;;23.63;19.17;;;8.60;99.90;;;;;;5071532;28;20457;-74
2021/11/15 05:23:54;;;;;;;24.47;17.90;;;8.50;99.90;;;;;;5073151;28;20241;-74
2021/11/15 05:26:21;;;;;;;23.70;17.40;;;8.50;99.90;;;;;;5072255;28;20270;-74
2021/11/15 05:28:47;;;;;;;20.90;17.73;;;8.50;99.90;;;;;;5062604;28;20180;-74
2021/11/15 05:31:13;;;;;;;20.93;15.50;;;8.50;99.90;;;;;;5054089;28;20394;-74
2021/11/15 05:33:38;;;;;;;22.50;17.80;;;8.50;99.90;;;;;;5072550;28;20186;-74
2021/11/15 05:36:05;;;;;;;24.77;18.53;;;8.60;99.90;;;;;;5072725;28;20484;-74
2021/11/15 05:38:31;;;;;;;23.67;18.07;;;8.50;99.90;;;;;;5072695;28;20178;-74
2021/11/15 05:40:56;;;;;;;25.37;18.80;;;8.50;99.90;;;;;;5060027;28;20442;-74
2021/11/15 05:43:23;;;;;;;26.13;19.03;;;8.50;99.90;;;;;;5051950;28;20888;-74
2021/11/15 05:45:49;;;;;;;26.70;20.17;;;8.50;99.90;;;;;;5072215;28;20183;-74
2021/11/15 05:48:15;;;;;;;23.60;19.53;;;8.50;99.90;;;;;;5072538;28;20433;-74
2021/11/15 05:50:42;;;;;;;22.80;17.60;;;8.50;99.90;;;;;;5072095;28;20163;-74
2021/11/15 05:53:07;;;;;;;29.00;21.43;;;8.50;99.90;;;;;;5072003;28;20770;-74
2021/11/15 05:55:33;;;;;;;30.60;21.20;;;8.50;99.90;;;;;;5071440;28;20428;-74
2021/11/15 05:57:59;;;;;;;25.63;20.53;;;8.50;99.90;;;;;;5069662;28;20217;-74
2021/11/15 06:00:27;;;;;;;27.50;20.60;;;8.50;99.90;;;;;;5062414;28;20178;-74
2021/11/15 06:02:54;;;;;;;30.07;21.87;;;8.50;99.90;;;;;;5068077;28;20302;-74
2021/11/15 06:05:20;;;;;;;24.37;18.43;;;8.50;99.90;;;;;;5069420;28;20535;-74
2021/11/15 06:07:45;;;;;;;29.80;21.00;;;8.50;99.90;;;;;;5071469;28;20475;-74
2021/11/15 06:10:11;;;;;;;28.77;20.80;;;8.50;99.90;;;;;;5069946;28;20433;-74
2021/11/15 06:12:38;;;;;;;31.10;20.30;;;8.50;99.90;;;;;;5071408;28;20287;-74
2021/11/15 06:15:05;;;;;;;27.43;20.53;;;8.40;99.90;;;;;;5070193;28;20429;-73
2021/11/15 06:17:31;;;;;;;30.00;22.57;;;8.50;99.90;;;;;;5069492;28;20863;-74
2021/11/15 06:19:56;;;;;;;27.27;20.83;;;8.50;99.90;;;;;;5067575;28;20467;-74
2021/11/15 06:22:22;;;;;;;32.63;21.47;;;8.50;99.90;;;;;;5068751;28;20301;-74
2021/11/15 06:24:48;;;;;;;29.43;20.80;;;8.40;99.90;;;;;;5071327;28;20202;-74
2021/11/15 06:27:15;;;;;;;29.47;20.47;;;8.50;99.90;;;;;;5068327;28;20639;-74
2021/11/15 06:29:41;;;;;;;27.93;19.70;;;8.50;99.90;;;;;;5064314;28;20220;-74
2021/11/15 06:32:08;;;;;;;30.63;20.67;;;8.50;99.90;;;;;;5070015;28;20817;-73
2021/11/15 06:34:34;;;;;;;28.20;21.10;;;8.50;99.90;;;;;;5068871;28;20924;-74
2021/11/15 06:36:59;;;;;;;29.23;22.10;;;8.50;99.90;;;;;;5071420;28;20433;-73
2021/11/15 06:39:26;;;;;;;37.63;22.70;;;8.50;99.90;;;;;;5068941;28;20850;-73
2021/11/15 06:41:54;;;;;;;31.67;21.63;;;8.40;99.90;;;;;;5070112;28;20244;-74
2021/11/15 06:44:20;;;;;;;30.63;21.93;;;8.40;99.90;;;;;;5070039;28;20439;-74
2021/11/15 06:46:46;;;;;;;33.27;22.97;;;8.40;99.90;;;;;;5067977;28;20552;-74
2021/11/15 06:49:11;;;;;;;27.97;21.97;;;8.40;99.90;;;;;;5070729;28;20512;-74
2021/11/15 06:51:37;;;;;;;34.07;22.37;;;8.40;99.90;;;;;;5060827;28;20583;-74
2021/11/15 06:54:03;;;;;;;30.03;22.70;;;8.40;99.90;;;;;;5065404;28;20171;-75
2021/11/15 06:56:30;;;;;;;29.67;21.00;;;8.40;99.90;;;;;;5068699;28;20464;-74
2021/11/15 06:58:55;;;;;;;30.20;22.30;;;8.40;99.90;;;;;;5068627;28;20253;-73
2021/11/15 07:01:21;;;;;;;32.70;24.00;;;8.40;99.90;;;;;;5066876;28;20901;-74
2021/11/15 07:03:47;;;;;;;33.40;24.47;;;8.40;99.90;;;;;;5070132;28;20234;-74
2021/11/15 07:06:13;;;;;;;34.40;23.60;;;8.40;99.90;;;;;;5068587;28;20207;-74
2021/11/15 07:08:39;;;;;;;28.87;21.37;;;8.40;99.90;;;;;;5072730;28;20590;-74
2021/11/15 07:11:04;;;;;;;28.47;21.70;;;8.40;99.90;;;;;;5071021;28;20179;-73
2021/11/15 07:13:30;;;;;;;31.20;23.63;;;8.40;99.90;;;;;;5072715;28;20176;-74
2021/11/15 07:15:55;;;;;;;30.30;23.50;;;8.40;99.90;;;;;;5074681;28;20233;-74
2021/11/15 07:18:21;;;;;;;35.83;24.70;;;8.40;99.90;;;;;;5073257;28;20175;-74
2021/11/15 07:20:47;;;;;;;34.60;23.50;;;8.40;99.90;;;;;;5069975;28;20251;-74
2021/11/15 07:23:13;;;;;;;31.33;21.30;;;8.40;99.90;;;;;;5070544;28;20194;-74
2021/11/15 07:25:39;;;;;;;32.90;23.33;;;8.40;99.90;;;;;;5071522;28;20428;-74
2021/11/15 07:28:05;;;;;;;31.47;22.30;;;8.40;99.90;;;;;;5073404;28;20444;-74
2021/11/15 07:30:31;;;;;;;33.27;21.00;;;8.40;99.90;;;;;;5073218;28;21074;-74
2021/11/15 07:32:56;;;;;;;31.20;21.43;;;8.40;99.90;;;;;;5071694;28;20640;-74
2021/11/15 07:35:22;;;;;;;29.67;21.40;;;8.30;99.90;;;;;;5071698;28;20183;-74
2021/11/15 07:37:48;;;;;;;30.87;22.23;;;8.30;99.90;;;;;;5067121;28;20308;-74
2021/11/15 07:40:17;;;;;;;30.63;22.80;;;8.30;99.90;;;;;;5065083;28;20647;-74
2021/11/15 07:42:43;;;;;;;29.80;22.20;;;8.30;99.90;;;;;;5070408;28;20959;-74
2021/11/15 07:45:10;;;;;;;31.50;21.57;;;8.30;99.90;;;;;;5071499;28;20951;-74
2021/11/15 07:47:35;;;;;;;29.33;23.03;;;8.30;99.90;;;;;;5068013;28;20468;-75
2021/11/15 07:50:04;;;;;;;26.77;21.20;;;8.30;99.90;;;;;;5057185;28;20473;-73
2021/11/15 07:52:31;;;;;;;25.23;19.03;;;8.30;99.90;;;;;;5068830;28;20781;-74
2021/11/15 07:54:57;;;;;;;27.83;18.87;;;8.30;99.90;;;;;;5066075;28;20496;-74
2021/11/15 07:57:23;;;;;;;28.87;20.43;;;8.30;99.90;;;;;;5059362;28;20929;-74
2021/11/15 07:59:48;;;;;;;30.00;20.90;;;8.30;99.90;;;;;;5064742;28;20437;-74
2021/11/15 08:02:14;;;;;;;24.70;17.80;;;8.20;99.90;;;;;;5072028;28;20218;-75
2021/11/15 08:04:39;;;;;;;24.77;18.30;;;8.20;99.90;;;;;;5072226;28;20214;-74
2021/11/15 08:07:07;;;;;;;22.10;17.97;;;8.30;99.90;;;;;;5073294;28;20159;-73
2021/11/15 08:09:32;;;;;;;25.10;18.60;;;8.30;99.90;;;;;;5068908;28;20186;-74
2021/11/15 08:12:06;;;;;;;27.43;19.50;;;8.30;99.90;;;;;;5065205;28;20445;-75
2021/11/15 08:14:33;;;;;;;26.50;18.93;;;8.30;99.90;;;;;;5071213;28;20205;-75
2021/11/15 08:16:59;;;;;;;24.10;17.07;;;8.30;99.90;;;;;;5068234;28;20457;-75
2021/11/15 08:19:24;;;;;;;23.83;18.70;;;8.30;99.90;;;;;;5063155;28;20468;-75
2021/11/15 08:21:50;;;;;;;23.83;18.67;;;8.30;99.90;;;;;;5066893;28;20267;-75
2021/11/15 08:26:58;;;;;;;25.80;18.80;;;8.30;99.90;;;;;;5044739;28;20567;-75
2021/11/15 08:29:25;;;;;;;25.10;18.17;;;8.20;99.90;;;;;;5049137;28;20488;-74
2021/11/15 08:31:53;;;;;;;23.50;16.90;;;8.10;99.90;;;;;;5044990;28;20519;-74
2021/11/15 08:34:20;;;;;;;23.60;18.33;;;8.20;99.90;;;;;;5045284;28;20426;-74
2021/11/15 08:36:47;;;;;;;27.93;18.90;;;8.20;99.90;;;;;;5045672;28;20866;-74
2021/11/15 08:39:16;;;;;;;24.43;18.77;;;8.20;99.90;;;;;;5056445;28;20969;-74
2021/11/15 08:41:46;;;;;;;26.73;18.27;;;8.30;99.90;;;;;;5045923;28;21243;-74
2021/11/15 08:44:14;;;;;;;24.97;19.30;;;8.30;99.90;;;;;;5041171;28;21249;-74
2021/11/15 08:46:40;;;;;;;26.03;20.07;;;8.30;99.90;;;;;;5044419;28;20531;-74
2021/11/15 08:49:08;;;;;;;23.67;18.40;;;8.30;99.90;;;;;;5067149;28;20462;-74
2021/11/15 08:51:36;;;;;;;27.37;18.57;;;8.30;99.90;;;;;;5056432;28;20765;-74
2021/11/15 08:54:02;;;;;;;26.60;19.53;;;8.30;99.90;;;;;;5061632;28;20473;-74
2021/11/15 08:56:28;;;;;;;26.87;19.47;;;8.30;99.90;;;;;;5046780;28;20508;-74
2021/11/15 08:58:54;;;;;;;26.30;19.33;;;8.30;99.90;;;;;;5043676;28;20446;-74
2021/11/15 09:01:20;;;;;;;24.77;17.80;;;8.30;99.90;;;;;;5044548;28;20203;-75
2021/11/15 09:03:50;;;;;;;25.47;17.97;;;8.30;99.90;;;;;;5041535;28;20966;-74
2021/11/15 09:06:16;;;;;;;21.33;15.70;;;8.30;99.90;;;;;;5030510;28;20910;-74
2021/11/15 09:08:43;;;;;;;22.20;17.30;;;8.20;99.90;;;;;;5047095;28;20434;-74
2021/11/15 09:11:09;;;;;;;24.17;17.30;;;8.30;99.90;;;;;;5041151;28;20543;-74
2021/11/15 09:13:37;;;;;;;23.80;17.20;;;8.20;99.90;;;;;;5034630;28;20953;-75
2021/11/15 09:16:03;;;;;;;22.20;15.73;;;8.20;99.90;;;;;;5041306;28;20453;-75
2021/11/15 09:18:29;;;;;;;28.87;18.33;;;8.20;99.90;;;;;;5031342;28;20446;-74
2021/11/15 09:20:56;;;;;;;26.20;19.30;;;8.20;99.90;;;;;;5030408;28;20949;-74
2021/11/15 09:23:21;;;;;;;27.70;20.13;;;8.20;99.90;;;;;;5042047;28;20168;-74
2021/11/15 09:25:47;;;;;;;26.70;17.60;;;8.20;99.90;;;;;;5035808;28;20816;-75
2021/11/15 09:28:13;;;;;;;23.70;16.97;;;8.30;99.90;;;;;;5032728;28;20176;-74
2021/11/15 09:30:40;;;;;;;25.00;18.63;;;8.30;99.90;;;;;;5042010;28;20172;-74
2021/11/15 09:33:06;;;;;;;24.97;17.20;;;8.30;99.90;;;;;;5037504;28;20206;-74
2021/11/15 09:35:33;;;;;;;21.90;16.47;;;8.30;99.90;;;;;;5029940;28;20419;-75
2021/11/15 09:37:59;;;;;;;21.70;16.40;;;8.30;99.90;;;;;;5022895;28;20787;-74
2021/11/15 09:40:24;;;;;;;24.83;18.17;;;8.20;99.90;;;;;;5023311;28;20469;-74
2021/11/15 09:42:57;;;;;;;20.20;14.97;;;8.20;99.90;;;;;;5023028;28;20189;-74
2021/11/15 09:45:23;;;;;;;23.90;16.53;;;8.30;99.90;;;;;;5026310;28;20197;-74
2021/11/15 09:47:49;;;;;;;20.63;15.80;;;8.30;99.90;;;;;;5014895;28;20438;-74
2021/11/15 09:50:17;;;;;;;21.73;16.17;;;8.30;99.90;;;;;;5023107;28;20435;-74
2021/11/15 09:52:43;;;;;;;22.00;16.67;;;8.30;99.90;;;;;;5029159;28;20187;-74
2021/11/15 09:55:10;;;;;;;21.00;14.67;;;8.30;99.90;;;;;;5030068;28;20515;-75
2021/11/15 09:57:40;;;;;;;24.53;17.67;;;8.30;99.90;;;;;;5022779;28;20436;-74
2021/11/15 10:00:10;;;;;;;22.60;16.03;;;8.30;99.90;;;;;;5018371;28;20448;-74
2021/11/15 10:02:37;;;;;;;24.53;17.10;;;8.30;99.90;;;;;;5021282;28;20483;-74
2021/11/15 10:05:06;;;;;;;20.83;16.30;;;8.30;99.90;;;;;;5028570;28;20530;-74
2021/11/15 10:07:44;;;;;;;19.47;14.57;;;8.30;99.90;;;;;;5024603;28;20446;-74
2021/11/15 10:13:08;;;;;;;20.77;16.17;;;8.30;99.90;;;;;;5046934;28;20681;-75
2021/11/15 10:15:57;;;;;;;23.37;14.80;;;8.30;99.90;;;;;;5025590;28;20453;-76
2021/11/15 10:21:38;;;;;;;20.80;15.00;;;8.40;99.90;;;;;;5110325;27;20571;-74
2021/11/15 10:26:53;;;;;;;18.87;13.90;;;8.30;99.90;;;;;;5039433;28;20544;-74
2021/11/15 10:29:22;;;;;;;18.43;13.50;;;8.30;99.90;;;;;;5035109;28;20495;-75
2021/11/15 10:34:32;;;;;;;19.03;14.43;;;8.30;99.90;;;;;;5063028;28;20662;-74
2021/11/15 10:39:58;;;;;;;16.50;11.90;;;8.40;99.90;;;;;;5060698;28;20570;-74
2021/11/15 10:42:29;;;;;;;16.77;12.10;;;8.40;99.90;;;;;;5045446;28;20437;-74
2021/11/15 10:47:40;;;;;;;12.17;10.83;;;8.30;99.90;;;;;;5033803;27;20561;-74
2021/11/15 10:55:41;;;;;;;14.90;11.00;;;8.30;99.90;;;;;;5100060;27;20536;-74
2021/11/15 10:58:23;;;;;;;15.00;10.33;;;8.50;99.90;;;;;;5103095;28;20429;-74
2021/11/15 11:00:52;;;;;;;9.70;8.70;;;8.50;99.90;;;;;;5098473;28;20489;-74
2021/11/15 11:03:21;;;;;;;10.80;8.37;;;8.50;99.90;;;;;;5114936;28;20443;-74
2021/11/15 11:05:50;;;;;;;11.50;8.97;;;8.50;99.90;;;;;;5121020;28;20468;-74
2021/11/15 11:08:25;;;;;;;12.00;10.43;;;8.60;99.90;;;;;;5089414;28;20417;-74
2021/11/15 11:16:18;;;;;;;12.97;9.70;;;8.60;99.90;;;;;;5126985;27;20507;-74
2021/11/15 11:18:46;;;;;;;12.70;10.20;;;8.60;99.90;;;;;;5127600;27;20388;-74
2021/11/15 11:26:41;;;;;;;11.87;9.57;;;8.60;99.90;;;;;;5064093;28;20537;-74
2021/11/15 11:29:19;;;;;;;9.93;8.93;;;8.70;99.90;;;;;;5053711;28;21861;-74
2021/11/15 11:31:47;;;;;;;10.23;8.93;;;8.70;99.90;;;;;;5047027;28;20430;-74
2021/11/15 11:34:13;;;;;;;11.83;9.80;;;8.70;99.90;;;;;;5043358;28;20861;-74
2021/11/15 11:36:39;;;;;;;15.93;10.83;;;8.60;99.90;;;;;;5034772;28;20438;-74
2021/11/15 11:39:09;;;;;;;14.37;11.70;;;8.70;99.90;;;;;;5039694;28;20773;-74
2021/11/15 11:41:38;;;;;;;13.63;11.50;;;8.60;99.90;;;;;;5035783;28;20434;-74
2021/11/15 11:44:08;;;;;;;12.70;10.37;;;8.70;99.90;;;;;;5036947;28;21137;-74
2021/11/15 11:46:36;;;;;;;15.33;11.33;;;8.70;99.90;;;;;;5038091;28;20450;-74
2021/11/15 11:49:04;;;;;;;13.97;10.50;;;8.70;99.90;;;;;;5040636;28;21153;-74
2021/11/15 11:51:29;;;;;;;12.33;10.87;;;8.60;99.90;;;;;;5040545;28;20829;-74
2021/11/15 11:54:17;;;;;;;13.90;12.10;;;8.60;99.90;;;;;;5043492;28;20445;-74
2021/11/15 11:56:59;;;;;;;12.10;9.13;;;8.60;99.90;;;;;;5043119;28;20184;-74
2021/11/15 11:59:25;;;;;;;9.73;8.73;;;8.60;99.90;;;;;;5043487;28;21003;-74
2021/11/15 12:01:57;;;;;;;11.73;9.60;;;8.70;99.90;;;;;;5038225;28;20446;-74
2021/11/15 12:04:25;;;;;;;10.73;9.43;;;8.70;99.90;;;;;;5035459;28;20439;-74
2021/11/15 12:06:50;;;;;;;9.83;8.83;;;8.70;99.90;;;;;;5033831;28;20438;-74
2021/11/15 12:09:18;;;;;;;11.63;9.20;;;8.70;99.90;;;;;;5034621;28;20541;-73
2021/11/15 12:12:02;;;;;;;10.63;9.20;;;8.80;99.90;;;;;;5036511;28;20183;-74
2021/11/15 12:14:33;;;;;;;10.57;8.07;;;8.80;99.90;;;;;;5036239;28;20441;-75
2021/11/15 12:17:01;;;;;;;11.23;7.30;;;8.80;99.90;;;;;;5037652;28;20434;-74
2021/11/15 12:22:38;;;;;;;11.13;8.27;;;8.80;99.90;;;;;;5064157;28;21083;-73
2021/11/15 12:27:45;;;;;;;12.10;10.37;;;8.80;99.90;;;;;;5081672;28;20660;-73
2021/11/15 12:30:15;;;;;;;11.33;9.40;;;8.80;99.90;;;;;;5083095;28;20421;-73
2021/11/15 12:32:42;;;;;;;13.37;10.97;;;8.80;99.90;;;;;;5080757;28;20477;-74
2021/11/15 12:35:09;;;;;;;9.90;7.93;;;8.80;99.90;;;;;;5080720;28;21859;-74
2021/11/15 12:37:39;;;;;;;9.70;8.17;;;8.80;99.90;;;;;;5084031;28;20448;-74
2021/11/15 12:40:07;;;;;;;10.90;8.50;;;8.80;99.90;;;;;;5080763;28;20464;-74
2021/11/15 12:42:34;;;;;;;10.57;8.70;;;8.70;99.90;;;;;;5083067;28;20443;-74
2021/11/15 12:45:23;;;;;;;10.80;9.70;;;8.70;99.90;;;;;;5082731;28;20422;-74
2021/11/15 12:47:49;;;;;;;11.20;8.70;;;8.70;99.90;;;;;;5083588;28;20436;-76
2021/11/15 12:50:19;;;;;;;10.67;8.43;;;8.70;99.90;;;;;;5080564;28;20504;-74
2021/11/15 12:52:55;;;;;;;9.40;8.30;;;8.80;99.90;;;;;;5083177;28;20460;-75
2021/11/15 12:55:22;;;;;;;11.27;9.60;;;8.80;99.90;;;;;;5083942;28;20462;-73
2021/11/15 12:57:58;;;;;;;15.90;9.90;;;8.80;99.90;;;;;;5091422;28;20437;-73
2021/11/15 13:00:35;;;;;;;11.80;9.03;;;8.80;99.90;;;;;;5085212;28;20435;-73
2021/11/15 13:03:05;;;;;;;12.57;9.10;;;8.80;99.90;;;;;;5075575;28;20446;-73
2021/11/15 13:05:32;;;;;;;10.70;8.97;;;8.70;99.90;;;;;;5058967;28;20456;-73
2021/11/15 13:08:01;;;;;;;11.57;9.37;;;8.70;99.90;;;;;;5066962;28;20454;-73
2021/11/15 13:10:27;;;;;;;11.90;7.90;;;8.70;99.90;;;;;;5067660;28;20424;-73
2021/11/15 13:12:55;;;;;;;9.43;7.90;;;8.70;99.90;;;;;;5066770;28;20433;-73
2021/11/15 13:15:21;;;;;;;13.13;9.20;;;8.70;99.90;;;;;;5061162;28;20513;-74
2021/11/15 13:17:46;;;;;;;13.70;11.03;;;8.70;99.90;;;;;;5065116;28;20432;-74
2021/11/15 13:20:13;;;;;;;14.37;11.10;;;8.80;99.90;;;;;;5062142;28;20179;-74
2021/11/15 13:22:42;;;;;;;12.70;10.20;;;8.80;99.90;;;;;;5060876;28;20546;-74
2021/11/15 13:25:09;;;;;;;13.03;9.60;;;8.70;99.90;;;;;;5068712;28;20440;-74